Portada
METAR-TAF:

METAR-TAF

Aeroports :

Base aèria

Tafraoui, Algèria

latitud: 35-32-33N, longitud: 000-31-56W, altitud: 112 m

Observació

L'informe es va fer fa 31 minuts, a les 23:00 UTC
Vent 2 kt del Est/Nord-Est
Temperatura 16°C
Humitat 88%
Pressió 1014 hPa
Visibilitat: 8000 m
Escasses núvols a una alçada de 2300 ft, Cumulus congestus.
Escasses núvols a una alçada de 2600 ft, Cumulonimbus.
Cel ennuvolat a una alçada de 3300 ft
tempesta, (lleu

METAR: DAOL 212300Z 07002KT 8000 -TS FEW023TCU FEW026CB BKN033 16/14 Q1014 RERA

Hora: 00:31 (23:31 UTC)


TAF: manca

Observacions i pronòstics meteorològics de més de 4000 aeroports (METAR i TAF).

Les estacions disponibles són els punts grocs i vermells al mapa.

Posi el ratolí al punt desitjat per veure el nom de l'estació.

Feu clic per veure les observacions i els pronòstics meteorològics.

Per canviar el mapa: feu clic els botons verds amb una creu de color negre per apropar; al botó verd amb un guió per allunyar la imatge; o en les fletxes verdes per a mapes adjacents.


METAR-TAF: